Terminal Aerodrome Forecast
Issued by NWS

Home | Current Version | Previous Version | Text Only | Print | Product List | Glossary On
Versions: 1 2 3 4 5 6 7 8 9 10 11 12 13 14 15 16 17 18 19 20 21 22 23 24 25 26 27 28 29 30 31 32
000
FTUS43 KDMX 272329
TAFMCW
TAF
KMCW 272329Z 2800/2824 32009KT P6SM BKN140
     FM280500 34010KT P6SM BKN025 OVC060
     FM281100 35011G20KT P6SM VCSH BKN012
     FM281400 35013G23KT P6SM SCT012 BKN018
     FM282000 36012G20KT P6SM SCT018 BKN030=

USA.gov is the U.S. government's official web portal to all federal, state and local government web resources and services.